Kasson, West Virginia
Current Conditions -  °F | °C
As of 12:53 PM on Wednesday 28 Jan 2015 (Local Time) from KCKB Reporting Station
Few Clouds Few Clouds  
Wind Chill: 23°   Ceiling: Unl
Heat Index: 23°   Visibility: 10mi
Dew Point: 13°   Wind: 0mph
Humidity: 65%   Direction: NA
Pressure: 30.33"   Gusts: NA
Location:  39.2242°N, 79.9068°W
Report Text: KCKB 281753Z 00000KT 10SM FEW020 M05/M11 A3033 RMK AO2 UPE13SNB08E09 SLP282 P0000 60000 T10501106 11050 21089 58005
Loading
Personal Weather Stations






























Interactive Weather Map New forecast layout! Learn more

10-Day Weather Forecast

Advertisements
Track Severe Weather on mobile